FDX6 EDDK-LIMC
Flight info
| Callsign | FDX6 |
|---|---|
| Flight time | 1h 7m |
| Altitude | 33000 |
| Route | KUMIK1R KUMIK Y854 BOMBI DCT GIGET DCT ABUKA DCT KRH DCT NATOR DCT DITON DCT BASGO Z424 RIXUV |
| Aircraft | MD11/H-SDE1E2E3FGHIJ2J3J4J5M1RWXY/LB1D1 |
Departure
| Time | 2026-05-06 08:36 |
|---|---|
| Airport | Cologne Bonn Airport (EDDK) |
Arrival
| Time | 2026-05-06 09:44 |
|---|---|
| Airport | Milan Malpensa International Airport (LIMC) |
| Time | Latitude | Longitude | Altitude | Speed | Heading |
|---|---|---|---|---|---|
| 2026-05-06 08:07 | 50.87534 | 7.12833 | 240 ft | 0 kts | 227° |
| 2026-05-06 08:24 | 50.87544 | 7.12850 | 240 ft | 4 kts | 227° |
| 2026-05-06 08:24 | 50.87562 | 7.12882 | 240 ft | 4 kts | 227° |
| 2026-05-06 08:25 | 50.87577 | 7.12907 | 240 ft | 4 kts | 219° |
| 2026-05-06 08:25 | 50.87596 | 7.12925 | 240 ft | 4 kts | 180° |
| 2026-05-06 08:25 | 50.87616 | 7.12919 | 240 ft | 4 kts | 141° |
| 2026-05-06 08:25 | 50.87635 | 7.12892 | 240 ft | 4 kts | 137° |
| 2026-05-06 08:26 | 50.87640 | 7.12885 | 240 ft | 0 kts | 137° |
| 2026-05-06 08:28 | 50.87639 | 7.12886 | 240 ft | 1 kts | 137° |
| 2026-05-06 08:29 | 50.87623 | 7.12909 | 240 ft | 5 kts | 137° |
| 2026-05-06 08:29 | 50.87586 | 7.12963 | 240 ft | 9 kts | 137° |
| 2026-05-06 08:29 | 50.87527 | 7.13049 | 240 ft | 14 kts | 137° |
| 2026-05-06 08:29 | 50.87449 | 7.13162 | 240 ft | 17 kts | 137° |
| 2026-05-06 08:30 | 50.87349 | 7.13306 | 240 ft | 21 kts | 137° |
| 2026-05-06 08:30 | 50.87234 | 7.13473 | 242 ft | 23 kts | 137° |
| 2026-05-06 08:30 | 50.87132 | 7.13620 | 246 ft | 17 kts | 137° |
| 2026-05-06 08:30 | 50.87060 | 7.13724 | 249 ft | 13 kts | 137° |
| 2026-05-06 08:31 | 50.86993 | 7.13821 | 251 ft | 12 kts | 137° |
| 2026-05-06 08:31 | 50.86933 | 7.13909 | 256 ft | 11 kts | 137° |
| 2026-05-06 08:31 | 50.86877 | 7.13990 | 262 ft | 11 kts | 137° |
| 2026-05-06 08:31 | 50.86806 | 7.14090 | 262 ft | 17 kts | 141° |
| 2026-05-06 08:32 | 50.86697 | 7.14191 | 266 ft | 17 kts | 140° |
| 2026-05-06 08:32 | 50.86624 | 7.14290 | 269 ft | 12 kts | 136° |
| 2026-05-06 08:32 | 50.86555 | 7.14397 | 270 ft | 16 kts | 136° |
| 2026-05-06 08:32 | 50.86475 | 7.14512 | 275 ft | 14 kts | 137° |
| 2026-05-06 08:33 | 50.86397 | 7.14624 | 280 ft | 18 kts | 137° |
| 2026-05-06 08:33 | 50.86291 | 7.14778 | 286 ft | 25 kts | 137° |
| 2026-05-06 08:33 | 50.86150 | 7.14983 | 298 ft | 27 kts | 137° |
| 2026-05-06 08:33 | 50.86022 | 7.15169 | 300 ft | 23 kts | 137° |
| 2026-05-06 08:34 | 50.85911 | 7.15329 | 304 ft | 22 kts | 137° |
| 2026-05-06 08:34 | 50.85652 | 7.15705 | 312 ft | 27 kts | 137° |
| 2026-05-06 08:34 | 50.85522 | 7.15891 | 315 ft | 23 kts | 137° |
| 2026-05-06 08:35 | 50.85410 | 7.16053 | 317 ft | 21 kts | 137° |
| 2026-05-06 08:35 | 50.85339 | 7.16243 | 315 ft | 22 kts | 100° |
| 2026-05-06 08:35 | 50.85398 | 7.16461 | 317 ft | 23 kts | 39° |
| 2026-05-06 08:35 | 50.85540 | 7.16501 | 315 ft | 21 kts | 343° |
| 2026-05-06 08:36 | 50.85663 | 7.16362 | 317 ft | 27 kts | 318° |
| 2026-05-06 08:36 | 50.86010 | 7.15858 | 307 ft | 115 kts | 317° |
| 2026-05-06 08:36 | 50.86791 | 7.14720 | 452 ft | 175 kts | 317° |
| 2026-05-06 08:36 | 50.87688 | 7.13431 | 1555 ft | 171 kts | 317° |
| 2026-05-06 08:37 | 50.88574 | 7.12221 | 2810 ft | 170 kts | 323° |
| 2026-05-06 08:37 | 50.89697 | 7.11621 | 3856 ft | 177 kts | 2° |
| 2026-05-06 08:37 | 50.90873 | 7.12140 | 4820 ft | 186 kts | 21° |
| 2026-05-06 08:37 | 50.92190 | 7.13039 | 5223 ft | 225 kts | 25° |
| 2026-05-06 08:38 | 50.93435 | 7.14555 | 5993 ft | 244 kts | 50° |
| 2026-05-06 08:38 | 50.94456 | 7.16988 | 6305 ft | 279 kts | 62° |
| 2026-05-06 08:38 | 50.95355 | 7.19726 | 7480 ft | 283 kts | 64° |
| 2026-05-06 08:38 | 50.96250 | 7.22547 | 8587 ft | 290 kts | 64° |
| 2026-05-06 08:39 | 50.97148 | 7.25397 | 9684 ft | 294 kts | 64° |
| 2026-05-06 08:39 | 50.98094 | 7.28404 | 10165 ft | 322 kts | 64° |
| 2026-05-06 08:39 | 50.99150 | 7.31769 | 10305 ft | 359 kts | 64° |
| 2026-05-06 08:39 | 51.00283 | 7.35383 | 11118 ft | 369 kts | 64° |
| 2026-05-06 08:40 | 51.01307 | 7.39149 | 12066 ft | 374 kts | 73° |
| 2026-05-06 08:40 | 51.01732 | 7.43227 | 13019 ft | 377 kts | 92° |
| 2026-05-06 08:40 | 51.01370 | 7.47355 | 13887 ft | 380 kts | 105° |
| 2026-05-06 08:40 | 51.00620 | 7.51392 | 14718 ft | 384 kts | 110° |
| 2026-05-06 08:41 | 50.99749 | 7.55423 | 15534 ft | 388 kts | 111° |
| 2026-05-06 08:41 | 50.98860 | 7.59501 | 16271 ft | 394 kts | 111° |
| 2026-05-06 08:41 | 50.97979 | 7.63654 | 17040 ft | 400 kts | 110° |
| 2026-05-06 08:41 | 50.97110 | 7.67874 | 17836 ft | 404 kts | 110° |
| 2026-05-06 08:42 | 50.96251 | 7.72146 | 18534 ft | 408 kts | 110° |
| 2026-05-06 08:42 | 50.95396 | 7.76456 | 19209 ft | 412 kts | 110° |
| 2026-05-06 08:42 | 50.94476 | 7.80774 | 19815 ft | 414 kts | 115° |
| 2026-05-06 08:42 | 50.93654 | 7.83492 | 20251 ft | 414 kts | 121° |
| 2026-05-06 08:43 | 50.92183 | 7.87420 | 20890 ft | 416 kts | 125° |
| 2026-05-06 08:43 | 50.90583 | 7.91251 | 21577 ft | 418 kts | 126° |
| 2026-05-06 08:43 | 50.88937 | 7.95076 | 22257 ft | 422 kts | 127° |
| 2026-05-06 08:43 | 50.87278 | 7.98933 | 22946 ft | 426 kts | 126° |
| 2026-05-06 08:44 | 50.85617 | 8.02834 | 23578 ft | 430 kts | 127° |
| 2026-05-06 08:44 | 50.83817 | 8.06601 | 24103 ft | 430 kts | 136° |
| 2026-05-06 08:44 | 50.81576 | 8.09718 | 24697 ft | 429 kts | 146° |
| 2026-05-06 08:44 | 50.79102 | 8.12378 | 25289 ft | 432 kts | 150° |
| 2026-05-06 08:45 | 50.76534 | 8.14871 | 25900 ft | 435 kts | 152° |
| 2026-05-06 08:45 | 50.73929 | 8.17352 | 26493 ft | 439 kts | 152° |
| 2026-05-06 08:45 | 50.71309 | 8.19876 | 27077 ft | 443 kts | 151° |
| 2026-05-06 08:45 | 50.68674 | 8.22462 | 27667 ft | 448 kts | 151° |
| 2026-05-06 08:46 | 50.66029 | 8.25094 | 28235 ft | 452 kts | 150° |
| 2026-05-06 08:46 | 50.63365 | 8.27766 | 28781 ft | 456 kts | 150° |
| 2026-05-06 08:46 | 50.60679 | 8.30471 | 29348 ft | 460 kts | 150° |
| 2026-05-06 08:46 | 50.57976 | 8.33194 | 29980 ft | 461 kts | 150° |
| 2026-05-06 08:47 | 50.55279 | 8.35911 | 30628 ft | 459 kts | 152° |
| 2026-05-06 08:47 | 50.52593 | 8.38612 | 31236 ft | 458 kts | 152° |
| 2026-05-06 08:47 | 50.49906 | 8.41307 | 31679 ft | 457 kts | 152° |
| 2026-05-06 08:47 | 50.47233 | 8.43984 | 32066 ft | 455 kts | 152° |
| 2026-05-06 08:48 | 50.44561 | 8.46653 | 32471 ft | 455 kts | 151° |
| 2026-05-06 08:48 | 50.41898 | 8.49310 | 32703 ft | 455 kts | 151° |
| 2026-05-06 08:48 | 50.39204 | 8.51931 | 32741 ft | 457 kts | 153° |
| 2026-05-06 08:49 | 50.33686 | 8.56739 | 32765 ft | 457 kts | 155° |
| 2026-05-06 08:49 | 50.28067 | 8.61413 | 32767 ft | 458 kts | 156° |
| 2026-05-06 08:50 | 50.22439 | 8.66110 | 32770 ft | 458 kts | 155° |
| 2026-05-06 08:50 | 50.16818 | 8.70822 | 32772 ft | 459 kts | 155° |
| 2026-05-06 08:51 | 50.11198 | 8.75526 | 32769 ft | 458 kts | 156° |
| 2026-05-06 08:51 | 50.05332 | 8.79126 | 32771 ft | 448 kts | 172° |
| 2026-05-06 08:51 | 50.02267 | 8.79636 | 32773 ft | 443 kts | 183° |
| 2026-05-06 08:52 | 49.99216 | 8.79312 | 32774 ft | 440 kts | 189° |
| 2026-05-06 08:52 | 49.93189 | 8.77791 | 32774 ft | 440 kts | 192° |
| 2026-05-06 08:53 | 49.87151 | 8.76271 | 32781 ft | 440 kts | 191° |
| 2026-05-06 08:53 | 49.81135 | 8.74946 | 32778 ft | 434 kts | 190° |
| 2026-05-06 08:54 | 49.75158 | 8.73704 | 32781 ft | 433 kts | 189° |
| 2026-05-06 08:54 | 49.69195 | 8.72482 | 32791 ft | 432 kts | 189° |
| 2026-05-06 08:55 | 49.63220 | 8.71277 | 32790 ft | 432 kts | 189° |
| 2026-05-06 08:55 | 49.57284 | 8.70083 | 32797 ft | 430 kts | 189° |
| 2026-05-06 08:56 | 49.51358 | 8.68891 | 32797 ft | 429 kts | 189° |
| 2026-05-06 08:56 | 49.45435 | 8.67700 | 32803 ft | 429 kts | 189° |
| 2026-05-06 08:57 | 49.39511 | 8.66499 | 32801 ft | 429 kts | 189° |
| 2026-05-06 08:57 | 49.33635 | 8.65307 | 32800 ft | 429 kts | 189° |
| 2026-05-06 08:58 | 49.27715 | 8.64109 | 32795 ft | 429 kts | 189° |
| 2026-05-06 08:58 | 49.21804 | 8.62915 | 32792 ft | 429 kts | 189° |
| 2026-05-06 08:59 | 49.15876 | 8.61721 | 32800 ft | 431 kts | 188° |
| 2026-05-06 08:59 | 49.09933 | 8.60527 | 32793 ft | 431 kts | 188° |
| 2026-05-06 09:00 | 49.03986 | 8.59335 | 32795 ft | 431 kts | 188° |
| 2026-05-06 09:00 | 48.98046 | 8.58066 | 32793 ft | 431 kts | 191° |
| 2026-05-06 09:01 | 48.92314 | 8.56314 | 32797 ft | 432 kts | 193° |
| 2026-05-06 09:01 | 48.86437 | 8.54354 | 32787 ft | 433 kts | 193° |
| 2026-05-06 09:02 | 48.80548 | 8.52409 | 32786 ft | 433 kts | 193° |
| 2026-05-06 09:02 | 48.74663 | 8.50493 | 32790 ft | 432 kts | 193° |
| 2026-05-06 09:03 | 48.68791 | 8.48594 | 32787 ft | 431 kts | 193° |
| 2026-05-06 09:03 | 48.62930 | 8.46702 | 32797 ft | 431 kts | 193° |
| 2026-05-06 09:04 | 48.57061 | 8.44813 | 32796 ft | 431 kts | 193° |
| 2026-05-06 09:04 | 48.51196 | 8.42929 | 32790 ft | 431 kts | 193° |
| 2026-05-06 09:05 | 48.45329 | 8.41049 | 32795 ft | 431 kts | 193° |
| 2026-05-06 09:05 | 48.39462 | 8.39174 | 32804 ft | 431 kts | 193° |
| 2026-05-06 09:06 | 48.33596 | 8.37304 | 32802 ft | 430 kts | 193° |
| 2026-05-06 09:06 | 48.27764 | 8.35448 | 32794 ft | 427 kts | 193° |
| 2026-05-06 09:07 | 48.21951 | 8.33603 | 32809 ft | 427 kts | 193° |
| 2026-05-06 09:07 | 48.16092 | 8.32109 | 32800 ft | 429 kts | 186° |
| 2026-05-06 09:08 | 48.10155 | 8.32019 | 32802 ft | 429 kts | 181° |
| 2026-05-06 09:08 | 48.04181 | 8.32235 | 32812 ft | 429 kts | 181° |
| 2026-05-06 09:09 | 47.98211 | 8.32388 | 32814 ft | 429 kts | 182° |
| 2026-05-06 09:09 | 47.92247 | 8.32488 | 32815 ft | 429 kts | 182° |
| 2026-05-06 09:10 | 47.86304 | 8.32573 | 32823 ft | 425 kts | 182° |
| 2026-05-06 09:10 | 47.80390 | 8.32654 | 32822 ft | 425 kts | 182° |
| 2026-05-06 09:11 | 47.74477 | 8.32736 | 32829 ft | 425 kts | 182° |
| 2026-05-06 09:11 | 47.68578 | 8.32819 | 32832 ft | 423 kts | 182° |
| 2026-05-06 09:12 | 47.62792 | 8.32900 | 32840 ft | 422 kts | 182° |
| 2026-05-06 09:12 | 47.56876 | 8.32982 | 32839 ft | 422 kts | 182° |
| 2026-05-06 09:13 | 47.51009 | 8.33064 | 32827 ft | 422 kts | 182° |
| 2026-05-06 09:13 | 47.45155 | 8.33146 | 32833 ft | 420 kts | 182° |
| 2026-05-06 09:14 | 47.39317 | 8.33227 | 32822 ft | 419 kts | 183° |
| 2026-05-06 09:14 | 47.33492 | 8.33308 | 32833 ft | 418 kts | 183° |
| 2026-05-06 09:15 | 47.27672 | 8.33612 | 32838 ft | 420 kts | 179° |
| 2026-05-06 09:15 | 47.21853 | 8.34392 | 32834 ft | 420 kts | 178° |
| 2026-05-06 09:16 | 47.16043 | 8.35235 | 32834 ft | 420 kts | 178° |
| 2026-05-06 09:16 | 47.10224 | 8.36053 | 32829 ft | 420 kts | 179° |
| 2026-05-06 09:17 | 47.04410 | 8.36854 | 32826 ft | 419 kts | 179° |
| 2026-05-06 09:17 | 46.98604 | 8.37647 | 32827 ft | 419 kts | 179° |
| 2026-05-06 09:18 | 46.92805 | 8.38436 | 32828 ft | 418 kts | 179° |
| 2026-05-06 09:18 | 46.87019 | 8.39224 | 32827 ft | 419 kts | 179° |
| 2026-05-06 09:19 | 46.81221 | 8.40012 | 32830 ft | 418 kts | 179° |
| 2026-05-06 09:19 | 46.75427 | 8.40797 | 32837 ft | 418 kts | 179° |
| 2026-05-06 09:20 | 46.69624 | 8.41581 | 32835 ft | 419 kts | 179° |
| 2026-05-06 09:20 | 46.63831 | 8.42363 | 32797 ft | 414 kts | 179° |
| 2026-05-06 09:20 | 46.61002 | 8.42749 | 32464 ft | 403 kts | 179° |
| 2026-05-06 09:21 | 46.58212 | 8.43127 | 31993 ft | 403 kts | 179° |
| 2026-05-06 09:21 | 46.55430 | 8.43500 | 31406 ft | 402 kts | 179° |
| 2026-05-06 09:21 | 46.52649 | 8.43871 | 30796 ft | 403 kts | 179° |
| 2026-05-06 09:21 | 46.49849 | 8.44243 | 30188 ft | 404 kts | 179° |
| 2026-05-06 09:22 | 46.47047 | 8.44617 | 29558 ft | 405 kts | 179° |
| 2026-05-06 09:22 | 46.44229 | 8.44988 | 28905 ft | 409 kts | 179° |
| 2026-05-06 09:22 | 46.41388 | 8.45363 | 28296 ft | 411 kts | 178° |
| 2026-05-06 09:22 | 46.38529 | 8.45742 | 27663 ft | 414 kts | 179° |
| 2026-05-06 09:23 | 46.35708 | 8.46118 | 27057 ft | 411 kts | 178° |
| 2026-05-06 09:23 | 46.32830 | 8.46504 | 26448 ft | 409 kts | 178° |
| 2026-05-06 09:23 | 46.30044 | 8.46876 | 25835 ft | 406 kts | 178° |
| 2026-05-06 09:23 | 46.27237 | 8.47255 | 25233 ft | 404 kts | 177° |
| 2026-05-06 09:24 | 46.24407 | 8.47652 | 24596 ft | 403 kts | 177° |
| 2026-05-06 09:24 | 46.21665 | 8.48044 | 23991 ft | 401 kts | 176° |
| 2026-05-06 09:24 | 46.18894 | 8.48442 | 23343 ft | 399 kts | 176° |
| 2026-05-06 09:24 | 46.16136 | 8.48840 | 22648 ft | 397 kts | 176° |
| 2026-05-06 09:25 | 46.13405 | 8.49233 | 22002 ft | 393 kts | 176° |
| 2026-05-06 09:25 | 46.10717 | 8.49824 | 21371 ft | 391 kts | 169° |
| 2026-05-06 09:25 | 46.08117 | 8.50934 | 20819 ft | 389 kts | 164° |
| 2026-05-06 09:25 | 46.05582 | 8.52275 | 20249 ft | 386 kts | 162° |
| 2026-05-06 09:26 | 46.03079 | 8.53682 | 19856 ft | 386 kts | 161° |
| 2026-05-06 09:26 | 46.00588 | 8.55089 | 19640 ft | 382 kts | 161° |
| 2026-05-06 09:26 | 45.98189 | 8.56434 | 19529 ft | 359 kts | 162° |
| 2026-05-06 09:26 | 45.95927 | 8.57689 | 19409 ft | 338 kts | 162° |
| 2026-05-06 09:27 | 45.93791 | 8.58862 | 19271 ft | 319 kts | 162° |
| 2026-05-06 09:27 | 45.91753 | 8.59972 | 19015 ft | 310 kts | 163° |
| 2026-05-06 09:27 | 45.89792 | 8.61207 | 18575 ft | 310 kts | 154° |
| 2026-05-06 09:27 | 45.88002 | 8.62947 | 18002 ft | 311 kts | 147° |
| 2026-05-06 09:28 | 45.86304 | 8.64876 | 17354 ft | 311 kts | 145° |
| 2026-05-06 09:28 | 45.84637 | 8.66842 | 16771 ft | 309 kts | 144° |
| 2026-05-06 09:28 | 45.82986 | 8.68799 | 16202 ft | 308 kts | 145° |
| 2026-05-06 09:28 | 45.81339 | 8.70744 | 15652 ft | 305 kts | 145° |
| 2026-05-06 09:29 | 45.79702 | 8.72667 | 15109 ft | 304 kts | 145° |
| 2026-05-06 09:29 | 45.78070 | 8.74578 | 14564 ft | 303 kts | 145° |
| 2026-05-06 09:29 | 45.76384 | 8.76340 | 14031 ft | 298 kts | 152° |
| 2026-05-06 09:29 | 45.74601 | 8.77840 | 13498 ft | 296 kts | 155° |
| 2026-05-06 09:30 | 45.72799 | 8.79252 | 12931 ft | 295 kts | 155° |
| 2026-05-06 09:30 | 45.71608 | 8.80171 | 12584 ft | 293 kts | 155° |
| 2026-05-06 09:30 | 45.69818 | 8.81548 | 12066 ft | 291 kts | 155° |
| 2026-05-06 09:30 | 45.68047 | 8.82913 | 11562 ft | 285 kts | 155° |
| 2026-05-06 09:31 | 45.66314 | 8.84250 | 11190 ft | 281 kts | 154° |
| 2026-05-06 09:31 | 45.64605 | 8.85568 | 11004 ft | 275 kts | 154° |
| 2026-05-06 09:31 | 45.62417 | 8.87204 | 10857 ft | 260 kts | 161° |
| 2026-05-06 09:31 | 45.60721 | 8.87927 | 10794 ft | 252 kts | 169° |
| 2026-05-06 09:32 | 45.59556 | 8.88284 | 10723 ft | 254 kts | 170° |
| 2026-05-06 09:32 | 45.57825 | 8.88773 | 10482 ft | 255 kts | 171° |
| 2026-05-06 09:32 | 45.56070 | 8.89254 | 10043 ft | 257 kts | 171° |
| 2026-05-06 09:32 | 45.54318 | 8.89733 | 9683 ft | 256 kts | 171° |
| 2026-05-06 09:33 | 45.52570 | 8.90211 | 9300 ft | 255 kts | 170° |
| 2026-05-06 09:33 | 45.50862 | 8.90678 | 8949 ft | 247 kts | 171° |
| 2026-05-06 09:33 | 45.49193 | 8.91133 | 8711 ft | 241 kts | 171° |
| 2026-05-06 09:33 | 45.47545 | 8.91581 | 7969 ft | 241 kts | 171° |
| 2026-05-06 09:34 | 45.45897 | 8.92029 | 7317 ft | 241 kts | 170° |
| 2026-05-06 09:34 | 45.44277 | 8.92469 | 6687 ft | 239 kts | 170° |
| 2026-05-06 09:34 | 45.42631 | 8.92916 | 6055 ft | 236 kts | 170° |
| 2026-05-06 09:34 | 45.41024 | 8.93353 | 5514 ft | 234 kts | 170° |
| 2026-05-06 09:35 | 45.39460 | 8.93778 | 5064 ft | 230 kts | 170° |
| 2026-05-06 09:35 | 45.37881 | 8.94206 | 4681 ft | 230 kts | 171° |
| 2026-05-06 09:35 | 45.36304 | 8.94634 | 4291 ft | 226 kts | 171° |
| 2026-05-06 09:35 | 45.34783 | 8.95045 | 3979 ft | 225 kts | 171° |
| 2026-05-06 09:36 | 45.33253 | 8.95080 | 3906 ft | 215 kts | 194° |
| 2026-05-06 09:36 | 45.32071 | 8.94048 | 3890 ft | 193 kts | 227° |
| 2026-05-06 09:36 | 45.31604 | 8.92287 | 3894 ft | 197 kts | 263° |
| 2026-05-06 09:36 | 45.31969 | 8.90389 | 3940 ft | 205 kts | 295° |
| 2026-05-06 09:37 | 45.32682 | 8.88724 | 3923 ft | 187 kts | 297° |
| 2026-05-06 09:37 | 45.33340 | 8.87200 | 3923 ft | 178 kts | 296° |
| 2026-05-06 09:37 | 45.33979 | 8.85701 | 3957 ft | 178 kts | 296° |
| 2026-05-06 09:37 | 45.34611 | 8.84205 | 3946 ft | 176 kts | 295° |
| 2026-05-06 09:38 | 45.35183 | 8.82681 | 3944 ft | 174 kts | 290° |
| 2026-05-06 09:38 | 45.35801 | 8.81189 | 3934 ft | 179 kts | 310° |
| 2026-05-06 09:38 | 45.36903 | 8.80405 | 3953 ft | 182 kts | 349° |
| 2026-05-06 09:38 | 45.38179 | 8.80143 | 3983 ft | 186 kts | 350° |
| 2026-05-06 09:39 | 45.39451 | 8.79833 | 3959 ft | 186 kts | 347° |
| 2026-05-06 09:39 | 45.40720 | 8.79480 | 3954 ft | 185 kts | 347° |
| 2026-05-06 09:39 | 45.41985 | 8.79132 | 3952 ft | 185 kts | 347° |
| 2026-05-06 09:39 | 45.43245 | 8.78785 | 3946 ft | 184 kts | 347° |
| 2026-05-06 09:40 | 45.44509 | 8.78437 | 3865 ft | 185 kts | 349° |
| 2026-05-06 09:40 | 45.45780 | 8.78089 | 3857 ft | 187 kts | 349° |
| 2026-05-06 09:40 | 45.48247 | 8.77413 | 3395 ft | 177 kts | 348° |
| 2026-05-06 09:41 | 45.49453 | 8.77081 | 3172 ft | 177 kts | 349° |
| 2026-05-06 09:41 | 45.50659 | 8.76749 | 2933 ft | 176 kts | 350° |
| 2026-05-06 09:41 | 45.51857 | 8.76419 | 2666 ft | 175 kts | 351° |
| 2026-05-06 09:41 | 45.53051 | 8.76092 | 2436 ft | 175 kts | 352° |
| 2026-05-06 09:42 | 45.54241 | 8.75765 | 2219 ft | 174 kts | 352° |
| 2026-05-06 09:42 | 45.55415 | 8.75442 | 1983 ft | 170 kts | 352° |
| 2026-05-06 09:42 | 45.56574 | 8.75123 | 1763 ft | 169 kts | 352° |
| 2026-05-06 09:42 | 45.57720 | 8.74807 | 1532 ft | 166 kts | 353° |
| 2026-05-06 09:43 | 45.58845 | 8.74496 | 1298 ft | 163 kts | 353° |
| 2026-05-06 09:43 | 45.59953 | 8.74194 | 1067 ft | 162 kts | 353° |
| 2026-05-06 09:43 | 45.61055 | 8.73889 | 876 ft | 161 kts | 352° |
| 2026-05-06 09:43 | 45.62129 | 8.73583 | 748 ft | 146 kts | 353° |
| 2026-05-06 09:44 | 45.62953 | 8.73370 | 743 ft | 92 kts | 349° |
| 2026-05-06 09:44 | 45.63385 | 8.73253 | 743 ft | 37 kts | 349° |
| 2026-05-06 09:44 | 45.63618 | 8.73167 | 744 ft | 33 kts | 338° |
| 2026-05-06 09:44 | 45.63788 | 8.72966 | 746 ft | 31 kts | 309° |
| 2026-05-06 09:45 | 45.63867 | 8.72808 | 746 ft | 9 kts | 304° |
| 2026-05-06 09:45 | 45.63885 | 8.72769 | 747 ft | 4 kts | 304° |
| 2026-05-06 09:45 | 45.63902 | 8.72733 | 746 ft | 6 kts | 303° |
| 2026-05-06 09:45 | 45.63936 | 8.72659 | 746 ft | 12 kts | 302° |
| 2026-05-06 09:46 | 45.63952 | 8.72520 | 745 ft | 17 kts | 261° |
| 2026-05-06 09:46 | 45.63924 | 8.72324 | 746 ft | 21 kts | 259° |
| 2026-05-06 09:46 | 45.63913 | 8.72120 | 745 ft | 21 kts | 266° |
| 2026-05-06 09:46 | 45.63899 | 8.71923 | 748 ft | 19 kts | 256° |
| 2026-05-06 09:47 | 45.63813 | 8.71826 | 745 ft | 16 kts | 181° |
| 2026-05-06 09:47 | 45.63706 | 8.71851 | 745 ft | 16 kts | 168° |
| 2026-05-06 09:47 | 45.63580 | 8.71886 | 746 ft | 22 kts | 169° |
| 2026-05-06 09:47 | 45.63413 | 8.71934 | 747 ft | 26 kts | 168° |
| 2026-05-06 09:48 | 45.63241 | 8.71982 | 746 ft | 25 kts | 169° |
| 2026-05-06 09:48 | 45.63078 | 8.72025 | 746 ft | 23 kts | 169° |
| 2026-05-06 09:48 | 45.62925 | 8.72066 | 746 ft | 22 kts | 169° |
| 2026-05-06 09:48 | 45.62781 | 8.72106 | 746 ft | 20 kts | 168° |
| 2026-05-06 09:49 | 45.62646 | 8.72145 | 747 ft | 19 kts | 168° |
| 2026-05-06 09:49 | 45.62518 | 8.72183 | 747 ft | 18 kts | 168° |
| 2026-05-06 09:49 | 45.62407 | 8.72213 | 748 ft | 19 kts | 170° |
| 2026-05-06 09:49 | 45.62257 | 8.72250 | 746 ft | 24 kts | 170° |
| 2026-05-06 09:50 | 45.62071 | 8.72302 | 747 ft | 30 kts | 169° |
| 2026-05-06 09:50 | 45.61873 | 8.72358 | 747 ft | 28 kts | 169° |
| 2026-05-06 09:50 | 45.61686 | 8.72407 | 749 ft | 27 kts | 169° |
| 2026-05-06 09:50 | 45.61510 | 8.72455 | 745 ft | 25 kts | 169° |
| 2026-05-06 09:51 | 45.61343 | 8.72504 | 747 ft | 24 kts | 168° |
| 2026-05-06 09:51 | 45.61207 | 8.72538 | 749 ft | 14 kts | 179° |
| 2026-05-06 09:51 | 45.61155 | 8.72454 | 746 ft | 14 kts | 255° |
| 2026-05-06 09:51 | 45.61138 | 8.72293 | 749 ft | 18 kts | 269° |
| 2026-05-06 09:52 | 45.61133 | 8.72138 | 748 ft | 15 kts | 261° |
| 2026-05-06 09:52 | 45.61120 | 8.72044 | 749 ft | 6 kts | 257° |
| 2026-05-06 09:52 | 45.61116 | 8.72011 | 747 ft | 2 kts | 259° |
| 2026-05-06 09:52 | 45.61116 | 8.72007 | 747 ft | 1 kts | 259° |
| 2026-05-06 09:53 | 45.61114 | 8.71995 | 746 ft | 1 kts | 259° |
| 2026-05-06 09:53 | 45.61114 | 8.71993 | 746 ft | 0 kts | 259° |